Terminal Aerodrome Forecast
Issued by NWS Cleveland, OH

Home | Current Version | Previous Version | Graphics & Text | Print | Product List | Glossary On
Versions: 1 2 3 4 5 6 7 8 9 10 11 12 13 14 15 16 17 18
000
FTUS41 KCLE 251500 AAA
TAFMFD
TAF AMD
KMFD 251531Z 2516/2612 24015G25KT P6SM OVC018
     FM251700 24015G22KT P6SM OVC025
     FM252000 25012KT P6SM OVC030
     FM252300 26005KT P6SM SCT035=

USA.gov is the U.S. government's official web portal to all federal, state and local government web resources and services.